Time;durP1;ratioP1;P1;durP2;ratioP2;P2;SDS_P1;SDS_P2;PMS_P1;PMS_P2;Temp;Humidity;BMP_temperature;BMP_pressure;BME280_temperature;BME280_humidity;BME280_pressure;Samples;Min_cycle;Max_cycle;Signal;HPM_P1;HPM_P2
2023/11/28 00:01:49;;;;;;;3.72;0.98;;;15.70;66.90;;;;;;5079012;28;20058;-64
2023/11/28 00:04:15;;;;;;;2.42;1.38;;;15.70;66.70;;;;;;5094414;28;20016;-64
2023/11/28 00:06:40;;;;;;;2.88;1.20;;;15.70;66.50;;;;;;5097842;28;20043;-63
2023/11/28 00:22:34;;;;;;;1.98;1.00;;;15.70;66.20;;;;;;5102189;28;20454;-64
2023/11/28 00:25:00;;;;;;;1.58;0.80;;;15.60;66.30;;;;;;5101855;28;20126;-63
2023/11/28 00:27:25;;;;;;;2.55;1.05;;;15.60;66.10;;;;;;5099253;28;20300;-63
2023/11/28 00:29:50;;;;;;;1.80;1.13;;;15.60;66.40;;;;;;5103733;28;20821;-64
2023/11/28 00:32:16;;;;;;;2.33;0.98;;;15.60;66.00;;;;;;5102859;28;20546;-64
2023/11/28 00:34:42;;;;;;;2.30;1.08;;;15.70;66.20;;;;;;5101850;28;20432;-64
2023/11/28 00:37:08;;;;;;;2.50;0.70;;;15.70;66.30;;;;;;5097885;28;20495;-64
2023/11/28 00:39:35;;;;;;;3.30;1.15;;;15.70;66.20;;;;;;5104550;28;20034;-64
2023/11/28 00:42:03;;;;;;;1.50;0.85;;;15.60;66.10;;;;;;5100762;28;20080;-64
2023/11/28 00:44:30;;;;;;;2.03;0.90;;;15.60;66.10;;;;;;5098367;28;20036;-63
2023/11/28 00:46:57;;;;;;;0.98;0.70;;;15.70;66.30;;;;;;5096656;28;20444;-64
2023/11/28 00:49:23;;;;;;;0.88;0.77;;;15.60;66.20;;;;;;5086023;28;20116;-63
2023/11/28 00:51:49;;;;;;;6.20;0.95;;;15.60;66.20;;;;;;5093694;28;20028;-65
2023/11/28 00:54:14;;;;;;;3.65;1.13;;;15.70;67.10;;;;;;5098871;28;20138;-65
2023/11/28 00:56:40;;;;;;;1.23;0.60;;;15.70;66.90;;;;;;5103945;28;20031;-65
2023/11/28 00:59:05;;;;;;;2.50;0.63;;;15.80;66.90;;;;;;5104694;28;20032;-64
2023/11/28 01:01:31;;;;;;;1.42;0.93;;;15.70;66.80;;;;;;5097918;28;20028;-64
2023/11/28 01:03:56;;;;;;;1.95;0.70;;;15.70;67.00;;;;;;5106990;28;20401;-64
2023/11/28 01:06:22;;;;;;;1.20;0.55;;;15.70;67.10;;;;;;5098010;28;20035;-64
2023/11/28 01:08:47;;;;;;;2.30;0.70;;;15.70;66.80;;;;;;5092992;28;20030;-65
2023/11/28 01:11:15;;;;;;;2.13;0.60;;;15.70;66.90;;;;;;5103962;28;20035;-63
2023/11/28 01:13:41;;;;;;;2.45;0.80;;;15.70;66.70;;;;;;5106171;28;20039;-64
2023/11/28 01:16:10;;;;;;;1.00;0.50;;;15.70;66.90;;;;;;5103039;28;20055;-64
2023/11/28 01:18:35;;;;;;;1.48;0.70;;;15.70;66.50;;;;;;5103700;28;20071;-65
2023/11/28 01:21:02;;;;;;;1.05;0.57;;;15.70;66.80;;;;;;5104872;28;20402;-65
2023/11/28 01:23:27;;;;;;;2.05;0.55;;;15.70;67.40;;;;;;5098883;28;20131;-64
2023/11/28 01:25:53;;;;;;;5.18;0.80;;;15.80;66.70;;;;;;5098341;28;20541;-64
2023/11/28 01:28:18;;;;;;;1.75;0.57;;;15.80;67.10;;;;;;5106882;28;20023;-64
2023/11/28 01:30:44;;;;;;;1.05;0.50;;;15.70;66.80;;;;;;5096029;28;20058;-64
2023/11/28 01:33:11;;;;;;;1.08;0.63;;;15.70;67.00;;;;;;5106311;28;20418;-63
2023/11/28 01:35:38;;;;;;;6.25;1.00;;;15.70;66.70;;;;;;5099594;28;20486;-64
2023/11/28 01:38:04;;;;;;;7.82;1.00;;;15.70;67.10;;;;;;5101945;28;20035;-64
2023/11/28 01:40:29;;;;;;;2.17;0.80;;;15.70;66.80;;;;;;5101171;28;20610;-65
2023/11/28 01:42:55;;;;;;;2.75;0.60;;;15.80;66.60;;;;;;5104538;28;20062;-63
2023/11/28 01:45:22;;;;;;;1.50;0.60;;;15.80;66.50;;;;;;5099050;28;20461;-65
2023/11/28 01:47:52;;;;;;;1.50;0.65;;;15.80;66.50;;;;;;5100029;28;20430;-63
2023/11/28 01:50:18;;;;;;;0.60;0.60;;;15.70;66.40;;;;;;5100932;28;20401;-64
2023/11/28 01:52:44;;;;;;;0.90;0.50;;;15.70;66.30;;;;;;5095330;28;20035;-64
2023/11/28 01:55:11;;;;;;;1.63;0.43;;;15.80;66.30;;;;;;5097364;28;20039;-65
2023/11/28 01:57:37;;;;;;;0.77;0.40;;;15.80;66.20;;;;;;5095240;28;20058;-64
2023/11/28 02:00:05;;;;;;;0.73;0.50;;;15.70;66.30;;;;;;5096815;28;20478;-64
2023/11/28 02:02:31;;;;;;;1.60;0.60;;;15.80;66.30;;;;;;5093122;28;20028;-65
2023/11/28 02:04:57;;;;;;;1.80;0.32;;;15.80;66.10;;;;;;5095065;28;20061;-64
2023/11/28 02:07:22;;;;;;;1.30;0.30;;;15.80;66.40;;;;;;5095717;28;20186;-64
2023/11/28 02:09:48;;;;;;;0.60;0.32;;;15.80;66.30;;;;;;5096410;28;20435;-64
2023/11/28 02:12:14;;;;;;;2.75;0.50;;;15.70;66.20;;;;;;5095084;28;20047;-63
2023/11/28 02:14:45;;;;;;;0.82;0.43;;;15.70;66.20;;;;;;5098352;28;20039;-63
2023/11/28 02:17:11;;;;;;;0.50;0.40;;;15.80;66.20;;;;;;5097217;28;20034;-64
2023/11/28 02:19:37;;;;;;;0.73;0.50;;;15.80;66.30;;;;;;5092062;28;20024;-62
2023/11/28 02:22:03;;;;;;;0.40;0.40;;;15.70;66.00;;;;;;5091120;28;20433;-64
2023/11/28 02:24:35;;;;;;;3.47;0.55;;;15.70;66.10;;;;;;5092301;28;20426;-65
2023/11/28 02:27:00;;;;;;;6.57;0.60;;;15.70;67.10;;;;;;5091695;28;20048;-65
2023/11/28 02:29:26;;;;;;;2.15;0.43;;;15.80;66.30;;;;;;5095391;28;20032;-64
2023/11/28 02:31:51;;;;;;;4.80;0.93;;;15.80;66.00;;;;;;5097552;28;20039;-64
2023/11/28 02:34:17;;;;;;;4.22;0.73;;;15.90;66.40;;;;;;5092075;28;20036;-61
2023/11/28 02:36:42;;;;;;;2.15;0.50;;;15.90;67.00;;;;;;5094686;28;20418;-64
2023/11/28 02:39:08;;;;;;;4.10;0.50;;;15.90;66.90;;;;;;5095659;28;20051;-65
2023/11/28 02:41:33;;;;;;;2.17;0.60;;;15.90;66.10;;;;;;5094793;28;20032;-63
2023/11/28 02:44:01;;;;;;;1.95;0.77;;;15.90;66.30;;;;;;5095493;28;20038;-64
2023/11/28 02:46:27;;;;;;;1.45;0.30;;;15.90;66.30;;;;;;5097252;28;20055;-64
2023/11/28 02:48:53;;;;;;;5.60;0.60;;;15.90;65.90;;;;;;5085342;28;20059;-63
2023/11/28 02:51:20;;;;;;;5.47;0.50;;;15.90;66.10;;;;;;5095748;28;20550;-62
2023/11/28 02:53:45;;;;;;;2.40;0.40;;;15.90;66.00;;;;;;5069407;28;20457;-63
2023/11/28 02:56:11;;;;;;;6.18;0.50;;;15.90;66.00;;;;;;5074611;28;20024;-64
2023/11/28 02:58:37;;;;;;;1.38;0.75;;;15.90;66.30;;;;;;5075502;28;20039;-63
2023/11/28 03:01:03;;;;;;;5.97;0.98;;;15.90;66.10;;;;;;5090453;28;20056;-64
2023/11/28 03:03:28;;;;;;;4.65;0.77;;;15.80;66.90;;;;;;5091950;28;20481;-64
2023/11/28 03:05:54;;;;;;;3.83;0.75;;;15.90;66.60;;;;;;5092302;28;20061;-64
2023/11/28 03:08:19;;;;;;;1.88;0.40;;;15.90;66.20;;;;;;5085674;27;20096;-63
2023/11/28 03:10:45;;;;;;;1.13;0.60;;;15.90;65.80;;;;;;5097347;28;20122;-63
2023/11/28 03:13:10;;;;;;;1.30;0.30;;;15.90;65.80;;;;;;5087899;28;20026;-63
2023/11/28 03:15:36;;;;;;;0.45;0.22;;;15.90;65.90;;;;;;5092992;28;20394;-64
2023/11/28 03:18:02;;;;;;;0.40;0.30;;;15.90;65.80;;;;;;5087919;28;20280;-63
2023/11/28 03:20:28;;;;;;;0.70;0.50;;;15.90;65.70;;;;;;5090239;28;20039;-63
2023/11/28 03:22:53;;;;;;;2.53;0.35;;;15.90;65.70;;;;;;5096794;28;20035;-64
2023/11/28 03:25:19;;;;;;;1.85;0.30;;;15.90;65.40;;;;;;5091904;28;20028;-64
2023/11/28 03:27:44;;;;;;;0.50;0.40;;;15.90;65.70;;;;;;5088973;28;20032;-64
2023/11/28 03:30:10;;;;;;;0.60;0.28;;;15.90;65.70;;;;;;5094236;28;20042;-64
2023/11/28 03:32:35;;;;;;;0.95;0.30;;;15.90;65.50;;;;;;5096847;28;20055;-63
2023/11/28 03:35:02;;;;;;;0.88;0.30;;;15.90;65.60;;;;;;5099033;28;20397;-64
2023/11/28 03:37:28;;;;;;;2.83;0.57;;;15.90;65.50;;;;;;5097570;28;20035;-64
2023/11/28 03:39:53;;;;;;;1.33;0.40;;;15.90;66.00;;;;;;5099061;28;20509;-64
2023/11/28 03:42:19;;;;;;;0.50;0.38;;;15.90;65.60;;;;;;5098189;28;20107;-64
2023/11/28 03:44:44;;;;;;;0.68;0.30;;;15.90;66.30;;;;;;5092256;28;20024;-63
2023/11/28 03:47:10;;;;;;;0.38;0.25;;;15.90;65.70;;;;;;5092510;28;20486;-63
2023/11/28 03:49:35;;;;;;;0.22;0.22;;;15.90;66.00;;;;;;5092811;28;20035;-63
2023/11/28 03:52:01;;;;;;;1.85;0.38;;;15.90;65.70;;;;;;5093321;28;20495;-64
2023/11/28 03:54:26;;;;;;;0.30;0.20;;;15.90;65.80;;;;;;5094856;28;20243;-63
2023/11/28 03:56:52;;;;;;;1.55;0.20;;;15.90;65.90;;;;;;5097455;28;20035;-66
2023/11/28 03:59:17;;;;;;;0.40;0.30;;;15.90;66.00;;;;;;5086557;28;20051;-64
2023/11/28 04:01:44;;;;;;;0.32;0.30;;;15.90;65.90;;;;;;5095676;28;20380;-64
2023/11/28 04:04:10;;;;;;;0.28;0.25;;;15.90;66.10;;;;;;5087390;28;20519;-65
2023/11/28 04:06:35;;;;;;;1.80;0.40;;;15.90;65.60;;;;;;5097384;28;20178;-65
2023/11/28 04:09:02;;;;;;;2.28;0.50;;;15.90;65.60;;;;;;5098249;28;20028;-64
2023/11/28 04:11:28;;;;;;;2.22;0.60;;;15.90;66.10;;;;;;5096895;28;20046;-65
2023/11/28 04:13:53;;;;;;;2.63;0.52;;;15.90;65.70;;;;;;5094734;28;20502;-64
2023/11/28 04:16:19;;;;;;;8.27;0.95;;;15.90;65.90;;;;;;5097044;28;20043;-64
2023/11/28 04:18:46;;;;;;;1.73;0.50;;;15.90;66.60;;;;;;5093460;28;20036;-64
2023/11/28 04:21:16;;;;;;;0.45;0.40;;;15.90;66.00;;;;;;5098218;28;20028;-64
2023/11/28 04:23:43;;;;;;;10.23;1.10;;;16.00;65.80;;;;;;5097237;28;20506;-69
2023/11/28 04:26:09;;;;;;;6.03;0.90;;;16.00;67.60;;;;;;5098544;28;20409;-67
2023/11/28 04:28:35;;;;;;;5.03;0.60;;;16.10;66.00;;;;;;5092799;28;20568;-66
2023/11/28 04:31:00;;;;;;;10.82;0.90;;;16.10;65.40;;;;;;5098408;28;20031;-66
2023/11/28 04:33:26;;;;;;;4.57;0.88;;;16.00;65.80;;;;;;5103030;28;20065;-67
2023/11/28 04:35:51;;;;;;;3.40;0.98;;;16.00;65.70;;;;;;5102310;28;20077;-68
2023/11/28 04:38:17;;;;;;;2.42;0.50;;;16.00;65.70;;;;;;5098699;28;20035;-63
2023/11/28 04:40:42;;;;;;;1.10;0.50;;;15.90;65.80;;;;;;5098702;28;20387;-67
2023/11/28 04:43:08;;;;;;;1.30;0.75;;;15.90;65.90;;;;;;5095538;28;20028;-66
2023/11/28 04:45:34;;;;;;;6.43;0.70;;;15.90;66.50;;;;;;5098303;28;20119;-66
2023/11/28 04:47:59;;;;;;;7.13;0.47;;;15.90;66.00;;;;;;5098607;28;20115;-64
2023/11/28 04:50:25;;;;;;;6.72;0.68;;;15.90;65.90;;;;;;5098592;28;20044;-64
2023/11/28 04:52:50;;;;;;;3.90;0.40;;;15.90;65.80;;;;;;5097938;28;20028;-63
2023/11/28 04:55:15;;;;;;;1.77;0.55;;;15.90;65.80;;;;;;5095937;28;21367;-63
2023/11/28 04:57:41;;;;;;;2.92;0.40;;;15.90;65.80;;;;;;5095974;28;20036;-66
2023/11/28 05:00:08;;;;;;;4.78;0.93;;;15.80;65.70;;;;;;5100261;28;20031;-64
2023/11/28 05:02:34;;;;;;;1.35;0.55;;;15.80;65.90;;;;;;5094841;28;20579;-64
2023/11/28 05:04:59;;;;;;;0.90;0.50;;;15.80;65.90;;;;;;5092772;28;20019;-64
2023/11/28 05:07:25;;;;;;;1.60;0.50;;;15.80;66.00;;;;;;5095624;28;20042;-62
2023/11/28 05:09:50;;;;;;;1.95;0.50;;;15.80;66.10;;;;;;5099472;28;20028;-65
2023/11/28 05:12:17;;;;;;;0.68;0.40;;;15.80;65.70;;;;;;5083809;28;20433;-64
2023/11/28 05:14:42;;;;;;;1.33;0.60;;;15.80;66.00;;;;;;5106611;28;20027;-63
2023/11/28 05:17:08;;;;;;;0.55;0.50;;;15.80;65.80;;;;;;5095635;28;20028;-65
2023/11/28 05:19:34;;;;;;;2.28;0.60;;;15.70;65.90;;;;;;5107621;28;20027;-64
2023/11/28 05:22:00;;;;;;;2.33;0.50;;;15.70;66.00;;;;;;5100681;28;20028;-63
2023/11/28 05:24:25;;;;;;;0.90;0.70;;;15.70;66.00;;;;;;5099749;28;20047;-64
2023/11/28 05:26:51;;;;;;;0.73;0.60;;;15.70;65.90;;;;;;5097482;28;20036;-65
2023/11/28 05:29:17;;;;;;;1.58;0.88;;;15.70;65.90;;;;;;5097084;28;20031;-65
2023/11/28 05:31:42;;;;;;;0.90;0.47;;;15.70;66.00;;;;;;5105678;28;20032;-65
2023/11/28 05:34:08;;;;;;;0.70;0.70;;;15.70;66.00;;;;;;5095371;28;20111;-66
2023/11/28 05:36:33;;;;;;;0.88;0.52;;;15.70;65.90;;;;;;5102672;28;20077;-66
2023/11/28 05:39:00;;;;;;;0.82;0.68;;;15.70;65.80;;;;;;5099234;28;20152;-67
2023/11/28 05:41:25;;;;;;;2.03;1.00;;;15.60;66.20;;;;;;5101848;28;20395;-62
2023/11/28 05:43:51;;;;;;;4.03;0.82;;;15.70;66.10;;;;;;5102436;28;20042;-67
2023/11/28 05:46:16;;;;;;;3.13;1.00;;;15.70;65.70;;;;;;5103384;28;20039;-67
2023/11/28 05:48:42;;;;;;;3.55;0.80;;;15.70;65.50;;;;;;5105390;28;20063;-66
2023/11/28 05:51:08;;;;;;;2.05;0.55;;;15.70;65.70;;;;;;5103491;28;20023;-66
2023/11/28 05:53:35;;;;;;;2.05;1.08;;;15.60;65.20;;;;;;5096368;28;20502;-66
2023/11/28 05:56:02;;;;;;;0.80;0.80;;;15.70;65.20;;;;;;5093842;28;20047;-67
2023/11/28 05:58:28;;;;;;;3.38;1.02;;;15.60;65.20;;;;;;5099420;28;20032;-66
2023/11/28 06:00:54;;;;;;;3.42;0.90;;;15.60;65.20;;;;;;5101812;28;20558;-58
2023/11/28 06:03:19;;;;;;;2.35;1.10;;;15.60;65.30;;;;;;5094543;28;20040;-65
2023/11/28 06:05:45;;;;;;;1.50;0.90;;;15.60;65.30;;;;;;5097672;28;20032;-66
2023/11/28 06:08:11;;;;;;;9.30;1.40;;;15.70;65.20;;;;;;5096498;28;20063;-69
2023/11/28 06:10:36;;;;;;;1.40;0.85;;;15.80;65.50;;;;;;5097497;28;20300;-67
2023/11/28 06:13:01;;;;;;;3.22;1.88;;;16.00;64.10;;;;;;5095795;28;20111;-67
2023/11/28 06:15:27;;;;;;;8.80;1.45;;;15.80;63.50;;;;;;5096993;28;20341;-67
2023/11/28 06:17:53;;;;;;;6.90;1.70;;;15.70;63.80;;;;;;5094075;28;20028;-68
2023/11/28 06:20:19;;;;;;;2.80;1.70;;;15.70;63.90;;;;;;5077708;28;20044;-67
2023/11/28 06:22:45;;;;;;;4.32;1.95;;;15.60;63.40;;;;;;5093714;28;20028;-66
2023/11/28 06:25:11;;;;;;;2.95;2.13;;;15.50;63.20;;;;;;5098987;28;20398;-66
2023/11/28 06:27:37;;;;;;;5.47;3.92;;;15.50;63.00;;;;;;5099164;28;20486;-66
2023/11/28 06:30:04;;;;;;;4.80;3.50;;;15.40;62.80;;;;;;5098271;28;20522;-66
2023/11/28 06:32:30;;;;;;;3.55;3.20;;;15.40;62.60;;;;;;5094453;28;20043;-67
2023/11/28 06:34:55;;;;;;;4.93;3.30;;;15.30;62.50;;;;;;5095203;28;20032;-67
2023/11/28 06:37:22;;;;;;;5.35;3.03;;;15.30;62.80;;;;;;5098855;28;20019;-67
2023/11/28 06:39:48;;;;;;;19.92;5.13;;;15.40;61.40;;;;;;5100087;28;20130;-68
2023/11/28 06:42:15;;;;;;;18.25;4.45;;;15.30;61.20;;;;;;5102913;28;20028;-69
2023/11/28 06:44:41;;;;;;;20.15;4.55;;;15.20;62.40;;;;;;5091121;28;20035;-68
2023/11/28 06:47:06;;;;;;;15.65;5.13;;;15.30;62.00;;;;;;5096160;28;20043;-66
2023/11/28 06:49:32;;;;;;;17.20;3.83;;;15.30;61.90;;;;;;5096641;28;20530;-67
2023/11/28 06:51:58;;;;;;;11.30;4.13;;;15.30;62.20;;;;;;5101790;28;20111;-68
2023/11/28 06:54:24;;;;;;;8.77;3.20;;;15.30;62.30;;;;;;5074710;28;20409;-67
2023/11/28 06:56:49;;;;;;;9.38;2.75;;;15.30;63.00;;;;;;5097085;28;20035;-65
2023/11/28 06:59:16;;;;;;;7.28;2.78;;;15.40;63.30;;;;;;5100567;28;20034;-68
2023/11/28 07:01:41;;;;;;;10.20;3.25;;;15.30;63.40;;;;;;5093139;28;20048;-67
2023/11/28 07:04:07;;;;;;;6.57;3.22;;;15.30;63.60;;;;;;5094104;28;20054;-68
2023/11/28 07:06:32;;;;;;;8.13;3.03;;;15.30;64.50;;;;;;5099646;28;20457;-68
2023/11/28 07:08:58;;;;;;;6.95;2.85;;;15.30;64.00;;;;;;5102444;28;20028;-65
2023/11/28 07:11:24;;;;;;;9.80;2.60;;;15.30;64.10;;;;;;5100648;28;20020;-68
2023/11/28 07:13:50;;;;;;;5.60;2.63;;;15.30;64.10;;;;;;5091680;28;20036;-68
2023/11/28 07:16:17;;;;;;;8.38;2.67;;;15.30;64.10;;;;;;5105097;28;20030;-68
2023/11/28 07:18:43;;;;;;;5.63;3.08;;;15.30;64.10;;;;;;5097289;28;20476;-65
2023/11/28 07:21:09;;;;;;;6.63;2.67;;;15.30;64.20;;;;;;5095622;28;20032;-68
2023/11/28 07:23:35;;;;;;;8.90;3.42;;;15.30;64.30;;;;;;5101291;28;20427;-68
2023/11/28 07:26:00;;;;;;;5.43;2.50;;;15.30;64.30;;;;;;5096587;28;20331;-68
2023/11/28 07:28:26;;;;;;;5.68;2.63;;;15.30;64.50;;;;;;5099288;28;20039;-68
2023/11/28 07:30:52;;;;;;;8.65;2.60;;;15.30;64.50;;;;;;5094939;28;20032;-69
2023/11/28 07:33:18;;;;;;;3.75;2.15;;;15.30;64.40;;;;;;5094197;28;20081;-68
2023/11/28 07:35:44;;;;;;;4.28;2.35;;;15.30;64.40;;;;;;5103954;28;20074;-68
2023/11/28 07:38:09;;;;;;;5.45;2.17;;;15.30;64.50;;;;;;5100118;28;20062;-69
2023/11/28 07:40:37;;;;;;;4.72;2.30;;;15.30;64.70;;;;;;5093572;28;20427;-68
2023/11/28 07:43:03;;;;;;;7.65;2.92;;;15.30;64.60;;;;;;5080716;28;20093;-68
2023/11/28 07:45:29;;;;;;;4.90;1.95;;;15.30;64.60;;;;;;5104798;28;20024;-69
2023/11/28 07:47:56;;;;;;;2.88;2.15;;;15.20;64.70;;;;;;5103109;28;20032;-67
2023/11/28 07:50:21;;;;;;;6.07;2.47;;;15.20;64.70;;;;;;5097488;28;20031;-68
2023/11/28 07:52:47;;;;;;;4.97;2.47;;;15.30;64.80;;;;;;5101391;28;20032;-68
2023/11/28 07:55:13;;;;;;;2.70;1.98;;;15.30;64.80;;;;;;5103605;28;20036;-68
2023/11/28 07:57:38;;;;;;;4.15;2.05;;;15.20;64.80;;;;;;5095733;28;20112;-69
2023/11/28 08:00:07;;;;;;;4.22;2.13;;;15.20;64.70;;;;;;5101928;28;20027;-69
2023/11/28 08:02:33;;;;;;;3.17;1.80;;;15.20;64.80;;;;;;5073541;28;20249;-69
2023/11/28 08:04:59;;;;;;;3.20;2.13;;;15.20;64.90;;;;;;5095300;28;20028;-69
2023/11/28 08:07:24;;;;;;;5.40;2.13;;;15.20;64.90;;;;;;5092028;28;20490;-69
2023/11/28 08:09:50;;;;;;;2.35;2.00;;;15.20;64.90;;;;;;5092779;28;20028;-69
2023/11/28 08:12:15;;;;;;;3.03;2.05;;;15.20;64.90;;;;;;5099000;28;20081;-69
2023/11/28 08:14:41;;;;;;;4.32;1.98;;;15.20;64.90;;;;;;5097042;28;20033;-69
2023/11/28 08:17:06;;;;;;;5.68;2.30;;;15.20;64.90;;;;;;5097735;28;20375;-68
2023/11/28 08:19:33;;;;;;;4.70;2.15;;;15.20;65.00;;;;;;5096407;28;20042;-68
2023/11/28 08:21:58;;;;;;;4.50;2.50;;;15.20;65.00;;;;;;5093395;28;20054;-67
2023/11/28 08:24:24;;;;;;;2.92;2.17;;;15.20;65.00;;;;;;5077678;28;20048;-68
2023/11/28 08:26:49;;;;;;;5.05;2.35;;;15.20;65.00;;;;;;5092313;28;20028;-69
2023/11/28 08:29:15;;;;;;;5.35;2.22;;;15.20;65.10;;;;;;5096081;28;20393;-68
2023/11/28 08:31:40;;;;;;;4.40;2.08;;;15.20;65.00;;;;;;5096088;28;21805;-68
2023/11/28 08:34:06;;;;;;;2.60;2.20;;;15.20;65.10;;;;;;5094965;28;20058;-68
2023/11/28 08:36:31;;;;;;;4.43;1.92;;;15.20;65.00;;;;;;5092118;28;20093;-69
2023/11/28 08:38:57;;;;;;;3.92;2.10;;;15.20;65.00;;;;;;5094847;28;20028;-68
2023/11/28 08:41:22;;;;;;;3.60;1.95;;;15.20;65.10;;;;;;5100991;28;20042;-70
2023/11/28 08:43:48;;;;;;;4.18;2.10;;;15.20;65.10;;;;;;5093659;28;20491;-69
2023/11/28 08:46:14;;;;;;;4.70;2.45;;;15.20;65.10;;;;;;5095018;28;20051;-69
2023/11/28 08:48:42;;;;;;;3.10;2.17;;;15.20;65.00;;;;;;5093494;28;20027;-69
2023/11/28 08:51:08;;;;;;;6.15;2.53;;;15.20;65.10;;;;;;5092556;28;20047;-68
2023/11/28 08:53:34;;;;;;;2.97;1.85;;;15.20;65.00;;;;;;5098634;28;20028;-69
2023/11/28 08:55:59;;;;;;;3.88;2.22;;;15.20;65.10;;;;;;5095733;28;20146;-68
2023/11/28 08:58:25;;;;;;;2.88;1.98;;;15.20;65.10;;;;;;5096375;28;20043;-69
2023/11/28 09:00:53;;;;;;;3.63;2.22;;;15.20;65.10;;;;;;5078008;28;20036;-69
2023/11/28 09:03:20;;;;;;;7.80;2.28;;;15.20;65.10;;;;;;5095878;28;20391;-69
2023/11/28 09:05:46;;;;;;;2.70;2.10;;;15.20;65.10;;;;;;5094210;28;20028;-69
2023/11/28 09:08:12;;;;;;;3.65;1.88;;;15.20;65.00;;;;;;5095225;28;20027;-68
2023/11/28 09:10:37;;;;;;;4.63;1.80;;;15.30;65.10;;;;;;5083653;28;20036;-68
2023/11/28 09:13:03;;;;;;;3.63;2.13;;;15.20;65.10;;;;;;5100320;28;20054;-68
2023/11/28 09:15:28;;;;;;;2.92;2.10;;;15.30;65.10;;;;;;5101543;28;20140;-68
2023/11/28 09:17:54;;;;;;;2.53;1.80;;;15.30;65.10;;;;;;5100319;28;20036;-68
2023/11/28 09:20:20;;;;;;;3.67;2.25;;;15.30;65.10;;;;;;5095890;28;20032;-68
2023/11/28 09:22:47;;;;;;;2.47;1.90;;;15.20;65.00;;;;;;5094930;28;20453;-67
2023/11/28 09:25:14;;;;;;;3.25;2.22;;;15.30;65.10;;;;;;5094031;28;20057;-66
2023/11/28 09:27:39;;;;;;;4.22;2.58;;;15.30;65.10;;;;;;5076139;28;20020;-68
2023/11/28 09:30:06;;;;;;;3.10;2.13;;;15.30;65.10;;;;;;5100699;28;20034;-68
2023/11/28 09:32:31;;;;;;;4.25;2.47;;;15.30;65.00;;;;;;5097306;28;20024;-69
2023/11/28 09:34:57;;;;;;;4.70;2.55;;;15.30;65.60;;;;;;5089746;28;20397;-70
2023/11/28 09:37:23;;;;;;;7.28;3.10;;;15.60;64.90;;;;;;5097117;28;20096;-67
2023/11/28 09:39:48;;;;;;;4.55;2.78;;;15.60;64.50;;;;;;5099704;28;20406;-68
2023/11/28 09:42:15;;;;;;;3.78;2.70;;;15.50;64.50;;;;;;5096606;28;20020;-69
2023/11/28 09:44:45;;;;;;;3.85;2.40;;;15.50;64.70;;;;;;5100592;28;20031;-67
2023/11/28 09:47:11;;;;;;;4.03;2.88;;;15.40;64.90;;;;;;5100039;27;20020;-68
2023/11/28 09:49:41;;;;;;;5.00;2.70;;;15.40;65.00;;;;;;5092510;28;20486;-69
2023/11/28 09:52:08;;;;;;;4.85;2.55;;;15.30;65.10;;;;;;5094669;28;20038;-66
2023/11/28 09:54:37;;;;;;;2.78;2.28;;;15.40;65.70;;;;;;5096741;28;20024;-69
2023/11/28 09:57:04;;;;;;;3.13;2.50;;;15.40;65.00;;;;;;5096464;28;20023;-68
2023/11/28 09:59:30;;;;;;;5.90;2.80;;;15.30;65.00;;;;;;5077403;28;20420;-68
2023/11/28 10:01:57;;;;;;;4.00;2.53;;;15.40;65.00;;;;;;5091890;28;20031;-66
2023/11/28 10:04:23;;;;;;;3.58;2.30;;;15.30;65.00;;;;;;5101344;28;20039;-69
2023/11/28 10:06:50;;;;;;;3.67;2.65;;;15.30;65.10;;;;;;5092584;28;20036;-70
2023/11/28 10:09:16;;;;;;;3.83;2.53;;;15.30;65.10;;;;;;5093238;28;20028;-67
2023/11/28 10:11:42;;;;;;;4.00;2.20;;;15.30;65.10;;;;;;5097479;28;20043;-70
2023/11/28 10:14:08;;;;;;;5.05;2.28;;;15.30;65.20;;;;;;5093183;28;20510;-68
2023/11/28 10:16:44;;;;;;;3.40;2.35;;;15.30;65.10;;;;;;5095743;28;20032;-70
2023/11/28 10:19:10;;;;;;;3.47;2.42;;;15.30;65.10;;;;;;5086932;28;20584;-69
2023/11/28 10:21:36;;;;;;;4.05;2.20;;;15.30;65.10;;;;;;5088498;28;20169;-69
2023/11/28 10:24:01;;;;;;;4.45;2.40;;;15.30;65.10;;;;;;5095345;28;20142;-67
2023/11/28 10:26:27;;;;;;;3.70;2.88;;;15.30;65.20;;;;;;5092301;28;20119;-67
2023/11/28 10:28:54;;;;;;;3.55;2.50;;;15.30;65.10;;;;;;5092681;28;20459;-69
2023/11/28 10:31:19;;;;;;;7.10;2.70;;;15.30;65.20;;;;;;5094338;28;20623;-69
2023/11/28 10:33:45;;;;;;;2.83;2.30;;;15.20;65.10;;;;;;5096506;28;20111;-69
2023/11/28 10:36:11;;;;;;;3.47;2.60;;;15.30;65.20;;;;;;5089211;28;20020;-70
2023/11/28 10:38:37;;;;;;;3.25;2.58;;;15.30;65.20;;;;;;5105391;28;20036;-69
2023/11/28 10:41:03;;;;;;;3.75;2.72;;;15.20;65.10;;;;;;5104073;28;20324;-69
2023/11/28 10:43:29;;;;;;;3.72;2.88;;;15.30;65.10;;;;;;5086325;28;20028;-70
2023/11/28 10:45:57;;;;;;;3.08;2.47;;;15.20;65.10;;;;;;5091144;28;20819;-69
2023/11/28 10:48:25;;;;;;;3.28;2.65;;;15.20;65.10;;;;;;5093833;28;20383;-69
2023/11/28 10:50:51;;;;;;;4.63;2.88;;;15.20;65.10;;;;;;5097608;28;20060;-69
2023/11/28 10:53:17;;;;;;;4.20;2.70;;;15.20;65.10;;;;;;5090649;28;20192;-69
2023/11/28 10:55:48;;;;;;;3.03;2.50;;;15.20;65.10;;;;;;5098233;28;20032;-70
2023/11/28 10:58:15;;;;;;;3.33;2.67;;;15.20;65.10;;;;;;5095855;28;20506;-69
2023/11/28 11:00:44;;;;;;;3.45;2.80;;;15.20;65.10;;;;;;5096834;28;20028;-68
2023/11/28 11:03:10;;;;;;;3.40;2.22;;;15.20;65.10;;;;;;5087331;28;20077;-68
2023/11/28 11:05:37;;;;;;;4.18;2.50;;;15.20;65.10;;;;;;5099234;28;20516;-69
2023/11/28 11:08:03;;;;;;;3.10;2.72;;;15.20;65.10;;;;;;5092195;28;20122;-70
2023/11/28 11:10:32;;;;;;;3.60;2.50;;;15.20;65.10;;;;;;5071854;28;20103;-66
2023/11/28 11:13:10;;;;;;;3.00;2.40;;;15.20;65.10;;;;;;5097634;28;20217;-69
2023/11/28 11:15:46;;;;;;;2.72;2.38;;;15.20;65.10;;;;;;5080952;28;20440;-69
2023/11/28 11:18:20;;;;;;;5.07;2.88;;;15.20;65.10;;;;;;5097206;28;20044;-68
2023/11/28 11:20:51;;;;;;;4.07;2.40;;;15.20;65.10;;;;;;5091099;28;20688;-69
2023/11/28 11:23:18;;;;;;;3.00;2.60;;;15.20;65.10;;;;;;5095025;28;20514;-68
2023/11/28 11:25:51;;;;;;;3.90;2.35;;;15.20;65.10;;;;;;5099262;28;20044;-69
2023/11/28 11:28:16;;;;;;;3.28;2.67;;;15.20;65.10;;;;;;5093950;28;20324;-69
2023/11/28 11:30:42;;;;;;;4.15;2.58;;;15.20;65.10;;;;;;5097376;28;20108;-69
2023/11/28 11:33:11;;;;;;;3.63;2.33;;;15.20;65.10;;;;;;5089596;28;20031;-65
2023/11/28 11:36:08;;;;;;;3.58;2.42;;;15.20;65.20;;;;;;5088884;28;20721;-68
2023/11/28 11:38:35;;;;;;;2.95;2.53;;;15.20;65.20;;;;;;5091279;28;20043;-68
2023/11/28 11:41:04;;;;;;;3.03;2.20;;;15.20;65.20;;;;;;5094808;28;20020;-68
2023/11/28 11:43:44;;;;;;;3.45;2.20;;;15.20;65.20;;;;;;5083356;28;20049;-69
2023/11/28 11:46:13;;;;;;;3.63;2.45;;;15.20;65.20;;;;;;5101838;28;20456;-67
2023/11/28 11:48:40;;;;;;;2.40;2.20;;;15.20;65.30;;;;;;5078628;28;20032;-68
2023/11/28 11:51:06;;;;;;;3.13;2.40;;;15.20;65.30;;;;;;5095362;28;20551;-67
2023/11/28 11:53:33;;;;;;;2.85;2.55;;;15.10;65.30;;;;;;5094152;28;20039;-67
2023/11/28 11:56:01;;;;;;;3.00;2.10;;;15.20;65.30;;;;;;5099024;28;20042;-68
2023/11/28 11:58:28;;;;;;;3.92;2.60;;;15.10;65.30;;;;;;5093013;28;20039;-66
2023/11/28 12:00:53;;;;;;;2.80;2.47;;;15.10;65.30;;;;;;5095877;28;20040;-65
2023/11/28 12:03:20;;;;;;;4.22;2.60;;;15.10;65.30;;;;;;5099260;28;20422;-68
2023/11/28 12:05:50;;;;;;;4.97;2.63;;;15.10;65.30;;;;;;5082685;28;20285;-69
2023/11/28 12:08:16;;;;;;;3.40;2.60;;;15.20;65.30;;;;;;5096496;28;20105;-69
2023/11/28 12:10:41;;;;;;;3.00;2.40;;;15.10;65.30;;;;;;5101146;28;20052;-69
2023/11/28 12:13:10;;;;;;;3.40;2.63;;;15.10;65.30;;;;;;5099694;28;20038;-67
2023/11/28 12:15:36;;;;;;;2.67;2.30;;;15.10;65.30;;;;;;5102745;28;20038;-68
2023/11/28 12:18:09;;;;;;;3.40;2.58;;;15.10;65.30;;;;;;5106638;28;20036;-69
2023/11/28 12:20:35;;;;;;;3.10;2.42;;;15.10;65.30;;;;;;5101952;28;20096;-67
2023/11/28 12:23:00;;;;;;;3.90;2.90;;;15.10;65.30;;;;;;5089797;28;20634;-68
2023/11/28 12:25:26;;;;;;;4.30;2.30;;;15.10;65.30;;;;;;5090484;28;20028;-69
2023/11/28 12:27:52;;;;;;;2.40;2.13;;;15.10;65.30;;;;;;5096618;28;20421;-67
2023/11/28 12:30:17;;;;;;;3.10;2.28;;;15.10;65.30;;;;;;5100505;28;20043;-67
2023/11/28 12:32:43;;;;;;;3.17;2.25;;;15.10;65.30;;;;;;5098630;28;20406;-68
2023/11/28 12:35:09;;;;;;;4.55;2.58;;;15.10;65.30;;;;;;5090881;28;20028;-69
2023/11/28 12:37:34;;;;;;;4.20;2.70;;;15.10;65.40;;;;;;5101988;28;20505;-68
2023/11/28 12:40:03;;;;;;;4.03;3.00;;;15.10;65.30;;;;;;5092281;28;20051;-68
2023/11/28 12:42:29;;;;;;;3.30;2.17;;;15.10;65.30;;;;;;5105281;28;20031;-68
2023/11/28 12:44:57;;;;;;;3.83;2.53;;;15.10;65.30;;;;;;5098223;28;20036;-68
2023/11/28 12:47:23;;;;;;;4.00;2.50;;;15.10;65.30;;;;;;5101555;28;20097;-68
2023/11/28 12:49:49;;;;;;;3.00;2.40;;;15.10;65.30;;;;;;5100376;28;20067;-69
2023/11/28 12:52:15;;;;;;;4.13;2.40;;;15.10;65.30;;;;;;5090445;28;20490;-69
2023/11/28 12:54:41;;;;;;;5.28;2.85;;;15.10;65.30;;;;;;5103607;28;20397;-69